createdAt,value
2018-11-26T00:03:46.860Z,67.15
2018-11-26T00:07:50.873Z,66.97
2018-11-26T00:11:55.048Z,67.01
2018-11-26T00:15:59.174Z,67.22
2018-11-26T00:20:03.125Z,67.51
2018-11-26T00:24:07.195Z,67.35
2018-11-26T00:28:11.226Z,67.53
2018-11-26T00:32:15.313Z,67.62
2018-11-26T00:36:19.395Z,67.28
2018-11-26T00:40:23.461Z,67.63
2018-11-26T00:44:27.522Z,67.64
2018-11-26T00:48:31.619Z,67.57
2018-11-26T00:52:35.716Z,67.94
2018-11-26T00:56:40.815Z,67.66
2018-11-26T01:00:44.807Z,67.69
2018-11-26T01:04:48.839Z,67.61
2018-11-26T01:08:52.871Z,67.40
2018-11-26T01:12:56.892Z,67.81
2018-11-26T01:17:00.907Z,67.94
2018-11-26T01:21:05.095Z,67.89
2018-11-26T01:25:09.119Z,67.83
2018-11-26T01:29:13.102Z,67.72
2018-11-26T01:33:17.195Z,67.65
2018-11-26T01:37:21.226Z,67.86
2018-11-26T01:41:25.224Z,67.60
2018-11-26T01:45:29.263Z,67.40
2018-11-26T01:49:33.318Z,67.59
2018-11-26T01:53:37.483Z,67.11
2018-11-26T01:57:41.498Z,67.25
2018-11-26T02:01:45.543Z,67.15
2018-11-26T02:05:49.606Z,67.32
2018-11-26T02:09:53.667Z,67.51
2018-11-26T02:13:57.694Z,67.14
2018-11-26T02:18:01.716Z,67.38
2018-11-26T02:22:06.475Z,66.79
2018-11-26T02:26:10.451Z,67.06
2018-11-26T02:30:14.638Z,67.06
2018-11-26T02:34:18.646Z,67.32
2018-11-26T02:38:22.647Z,67.01
2018-11-26T02:42:26.635Z,67.31
2018-11-26T02:46:30.758Z,67.36
2018-11-26T02:50:34.883Z,67.04
2018-11-26T02:54:39.071Z,66.89
2018-11-26T02:58:43.144Z,67.13
2018-11-26T03:02:47.195Z,67.51
2018-11-26T03:06:51.275Z,67.46
2018-11-26T03:10:55.309Z,66.92
2018-11-26T03:14:59.387Z,67.10
2018-11-26T03:19:03.359Z,66.92
2018-11-26T03:23:08.604Z,67.21
2018-11-26T03:27:15.915Z,67.28
2018-11-26T03:31:20.150Z,67.17
2018-11-26T03:35:24.131Z,67.23
2018-11-26T03:39:28.287Z,67.42
2018-11-26T03:43:32.483Z,67.36
2018-11-26T03:47:36.507Z,67.55
2018-11-26T03:51:40.527Z,67.87
2018-11-26T03:55:44.559Z,67.69
2018-11-26T03:59:48.632Z,67.59
2018-11-26T04:03:52.690Z,67.76
2018-11-26T04:07:56.691Z,67.72
2018-11-26T04:12:00.771Z,67.67
2018-11-26T04:16:04.935Z,67.62
2018-11-26T04:20:09.315Z,68.02
2018-11-26T04:24:13.304Z,67.81
2018-11-26T04:28:17.327Z,67.60
2018-11-26T04:32:21.325Z,67.63
2018-11-26T04:36:25.344Z,67.83
2018-11-26T04:40:29.402Z,67.83
2018-11-26T04:44:33.394Z,67.54
2018-11-26T04:48:37.496Z,67.96
2018-11-26T04:52:41.904Z,68.15
2018-11-26T04:56:46.035Z,67.84
2018-11-26T05:00:50.106Z,67.72
2018-11-26T05:04:54.191Z,68.06
2018-11-26T05:08:58.327Z,67.96
2018-11-26T05:13:02.396Z,67.90
2018-11-26T05:17:06.440Z,68.08
2018-11-26T05:21:10.491Z,67.69
2018-11-26T05:25:14.572Z,67.85
2018-11-26T05:29:18.612Z,67.76
2018-11-26T05:33:22.607Z,67.95
2018-11-26T05:37:26.661Z,67.73
2018-11-26T05:41:30.753Z,67.42
2018-11-26T05:45:34.826Z,67.13
2018-11-26T05:49:38.924Z,67.13
2018-11-26T05:53:42.919Z,67.07
2018-11-26T05:57:47.271Z,66.93
2018-11-26T06:01:51.328Z,67.01
2018-11-26T06:05:55.394Z,66.82
2018-11-26T06:09:59.443Z,67.25
2018-11-26T06:14:03.462Z,66.66
2018-11-26T06:18:07.441Z,67.35
2018-11-26T06:22:11.463Z,66.84
2018-11-26T06:26:15.471Z,67.07
2018-11-26T06:30:20.038Z,66.67
2018-11-26T06:34:24.007Z,66.71
2018-11-26T06:38:28.103Z,66.57
2018-11-26T06:42:32.075Z,66.63
2018-11-26T06:46:36.108Z,66.94
2018-11-26T06:50:40.115Z,66.88
2018-11-26T06:54:44.165Z,66.80
2018-11-26T06:58:48.171Z,67.42
2018-11-26T07:02:52.232Z,67.28
2018-11-26T07:06:56.250Z,67.20
2018-11-26T07:11:00.250Z,67.11
2018-11-26T07:15:04.713Z,67.52
2018-11-26T07:19:08.672Z,67.48
2018-11-26T07:23:12.638Z,67.16
2018-11-26T07:27:16.686Z,67.45
2018-11-26T07:31:20.607Z,67.06
2018-11-26T07:35:24.587Z,67.22
2018-11-26T07:39:29.413Z,67.38
2018-11-26T07:43:33.414Z,66.87
2018-11-26T07:47:38.484Z,67.17
2018-11-26T07:51:42.596Z,67.01
2018-11-26T07:55:46.662Z,67.20
2018-11-26T07:59:50.819Z,67.08
2018-11-26T08:03:55.028Z,66.74
2018-11-26T08:07:59.101Z,66.25
2018-11-26T08:12:03.170Z,66.37
2018-11-26T08:16:07.302Z,66.33
2018-11-26T08:20:11.457Z,66.22
2018-11-26T08:24:15.415Z,66.10
2018-11-26T08:28:19.450Z,65.87
2018-11-26T08:32:23.371Z,65.62
2018-11-26T08:36:32.698Z,65.84
2018-11-26T08:40:42.016Z,65.83
2018-11-26T08:44:46.372Z,65.74
2018-11-26T08:49:56.448Z,65.67
2018-11-26T08:54:00.495Z,65.97
2018-11-26T08:58:04.606Z,65.34
2018-11-26T09:02:10.015Z,65.71
2018-11-26T09:06:14.015Z,65.69
2018-11-26T09:10:18.010Z,65.28
2018-11-26T09:14:22.054Z,65.36
2018-11-26T09:18:26.045Z,65.07
2018-11-26T09:22:30.770Z,65.44
2018-11-26T09:26:34.885Z,65.20
2018-11-26T09:30:38.943Z,64.57
2018-11-26T09:34:42.966Z,65.20
2018-11-26T09:38:46.956Z,65.25
2018-11-26T09:42:51.094Z,65.07
2018-11-26T09:46:55.126Z,65.17
2018-11-26T09:50:59.149Z,65.06
2018-11-26T09:55:03.183Z,64.73
2018-11-26T09:59:07.129Z,64.75
2018-11-26T10:03:11.104Z,65.22
2018-11-26T10:07:15.139Z,65.34
2018-11-26T10:11:19.155Z,64.88
2018-11-26T10:15:26.163Z,65.07
2018-11-26T10:19:30.119Z,64.85
2018-11-26T10:23:34.050Z,65.01
2018-11-26T10:27:38.030Z,65.43
2018-11-26T10:31:41.971Z,65.50
2018-11-26T10:35:45.965Z,65.36
2018-11-26T10:39:49.893Z,65.38
2018-11-26T10:43:53.852Z,65.43
2018-11-26T10:47:57.817Z,65.25
2018-11-26T10:52:01.841Z,65.22
2018-11-26T10:56:06.816Z,65.45
2018-11-26T11:00:18.244Z,65.45
2018-11-26T11:04:22.276Z,65.53
2018-11-26T11:08:26.319Z,65.58
2018-11-26T11:12:30.353Z,65.39
2018-11-26T11:16:34.299Z,65.53
2018-11-26T11:20:38.280Z,65.67
2018-11-26T11:24:42.280Z,66.16
2018-11-26T11:28:46.247Z,65.97
2018-11-26T11:32:50.236Z,65.75
2018-11-26T11:36:54.933Z,65.56
2018-11-26T11:40:58.907Z,65.96
2018-11-26T11:45:02.920Z,65.87
2018-11-26T11:49:06.933Z,65.85
2018-11-26T11:53:11.020Z,66.16
2018-11-26T11:57:15.080Z,65.83
2018-11-26T12:01:19.175Z,65.62
2018-11-26T12:05:23.168Z,65.38
2018-11-26T12:09:27.216Z,65.89
2018-11-26T12:13:31.273Z,65.39
2018-11-26T12:17:35.341Z,65.17
2018-11-26T12:21:39.292Z,65.53
2018-11-26T12:25:43.264Z,65.21
2018-11-26T12:29:47.336Z,65.29
2018-11-26T12:33:51.326Z,64.65
2018-11-26T12:37:55.320Z,65.04
2018-11-26T12:42:04.145Z,64.56
2018-11-26T12:46:03.286Z,64.71
2018-11-26T12:50:07.371Z,64.33
2018-11-26T12:54:11.330Z,64.03
2018-11-26T12:58:15.344Z,63.43
2018-11-26T13:02:19.390Z,63.86
2018-11-26T13:06:23.387Z,64.12
2018-11-26T13:10:27.440Z,63.70
2018-11-26T13:14:31.429Z,63.52
2018-11-26T13:18:35.492Z,63.85
2018-11-26T13:22:39.565Z,63.85
2018-11-26T13:26:43.542Z,63.53
2018-11-26T13:30:49.536Z,63.05
2018-11-26T13:34:53.518Z,63.54
2018-11-26T13:38:57.481Z,64.06
2018-11-26T13:43:01.472Z,63.61
2018-11-26T13:47:05.514Z,63.44
2018-11-26T13:51:09.481Z,63.67
2018-11-26T13:55:13.544Z,63.93
2018-11-26T13:59:17.571Z,63.80
2018-11-26T14:03:21.728Z,63.36
2018-11-26T14:07:25.869Z,63.57
2018-11-26T14:11:29.904Z,63.34
2018-11-26T14:15:33.996Z,62.89
2018-11-26T14:19:38.043Z,63.12
2018-11-26T14:23:42.036Z,63.32
2018-11-26T14:27:46.592Z,63.70
2018-11-26T14:31:50.637Z,63.17
2018-11-26T14:35:54.572Z,63.10
2018-11-26T14:39:58.519Z,63.34
2018-11-26T14:44:02.467Z,63.34
2018-11-26T14:48:06.714Z,63.74
2018-11-26T14:52:10.752Z,63.65
2018-11-26T14:56:14.835Z,63.73
2018-11-26T15:00:19.640Z,62.90
2018-11-26T15:04:23.624Z,62.95
2018-11-26T15:08:27.723Z,63.41
2018-11-26T15:12:31.888Z,63.84
2018-11-26T15:16:35.907Z,63.67
2018-11-26T15:20:39.927Z,63.73
2018-11-26T15:24:43.848Z,63.55
2018-11-26T15:28:47.898Z,63.50
2018-11-26T15:32:51.864Z,63.60
2018-11-26T15:36:55.804Z,63.68
2018-11-26T15:40:59.799Z,63.65
2018-11-26T15:45:03.741Z,63.69
2018-11-26T15:49:07.793Z,63.27
2018-11-26T15:53:11.833Z,63.29
2018-11-26T15:57:15.869Z,63.76
2018-11-26T16:01:19.917Z,63.20
2018-11-26T16:05:25.960Z,63.89
2018-11-26T16:09:29.944Z,63.88
2018-11-26T16:13:33.989Z,64.20
2018-11-26T16:17:38.039Z,64.59
2018-11-26T16:21:42.000Z,64.65
2018-11-26T16:25:47.277Z,64.89
2018-11-26T16:29:51.201Z,64.57
2018-11-26T16:33:55.244Z,64.97
2018-11-26T16:37:59.360Z,64.49
2018-11-26T16:42:03.308Z,64.68
2018-11-26T16:46:07.370Z,64.28
2018-11-26T16:50:12.719Z,64.56
2018-11-26T16:54:16.758Z,64.91
2018-11-26T16:58:20.834Z,64.50
2018-11-26T17:02:24.913Z,64.34
2018-11-26T17:06:28.925Z,64.42
2018-11-26T17:10:32.912Z,64.44
2018-11-26T17:14:36.976Z,64.57
2018-11-26T17:18:40.979Z,64.64
2018-11-26T17:22:45.124Z,64.76
2018-11-26T17:26:49.199Z,64.88
2018-11-26T17:30:53.237Z,64.83
2018-11-26T17:34:57.310Z,64.59
2018-11-26T17:39:01.335Z,64.49
2018-11-26T17:43:06.107Z,64.71
2018-11-26T17:47:10.253Z,65.36
2018-11-26T17:51:14.264Z,65.63
2018-11-26T17:55:18.345Z,65.42
2018-11-26T17:59:22.384Z,65.11
2018-11-26T18:03:26.409Z,64.92
2018-11-26T18:07:30.404Z,65.02
2018-11-26T18:11:34.418Z,65.18
2018-11-26T18:15:38.563Z,65.54
2018-11-26T18:19:42.567Z,65.83
2018-11-26T18:23:46.576Z,65.32
2018-11-26T18:28:04.896Z,65.83
2018-11-26T18:32:08.897Z,65.83
2018-11-26T18:36:12.961Z,66.01
2018-11-26T18:40:17.633Z,65.97
2018-11-26T18:44:21.695Z,66.15
2018-11-26T18:48:25.666Z,65.28
2018-11-26T18:52:29.748Z,64.28
2018-11-26T18:56:33.892Z,64.72
2018-11-26T19:00:40.941Z,64.38
2018-11-26T19:04:44.985Z,64.71
2018-11-26T19:08:49.076Z,65.14
2018-11-26T19:12:55.772Z,65.23
2018-11-26T19:16:59.781Z,64.76
2018-11-26T19:21:03.860Z,63.75
2018-11-26T19:25:14.727Z,64.31
2018-11-26T19:29:18.686Z,64.34
2018-11-26T19:33:22.772Z,64.60
2018-11-26T19:37:26.697Z,64.26
2018-11-26T19:41:30.666Z,64.14
2018-11-26T19:45:34.696Z,64.24
2018-11-26T19:49:38.657Z,63.76
2018-11-26T19:53:42.753Z,63.68
2018-11-26T19:57:46.807Z,63.87
2018-11-26T20:01:50.900Z,63.83
2018-11-26T20:06:04.313Z,64.00
2018-11-26T20:10:09.397Z,63.78
2018-11-26T20:14:21.229Z,63.49
2018-11-26T20:18:17.437Z,64.13
2018-11-26T20:22:21.448Z,64.23
2018-11-26T20:26:25.469Z,63.88
2018-11-26T20:30:29.452Z,63.97
2018-11-26T20:34:33.439Z,64.24
2018-11-26T20:38:37.516Z,64.01
2018-11-26T20:42:44.524Z,63.72
2018-11-26T20:46:49.245Z,63.69
2018-11-26T20:50:53.080Z,64.05
2018-11-26T20:54:57.162Z,63.55
2018-11-26T20:59:01.207Z,63.71
2018-11-26T21:03:09.371Z,63.77
2018-11-26T21:07:13.369Z,63.86
2018-11-26T21:11:17.483Z,64.01
2018-11-26T21:15:21.500Z,63.98
2018-11-26T21:19:25.493Z,63.99
2018-11-26T21:23:31.981Z,64.00
2018-11-26T21:27:35.971Z,64.19
2018-11-26T21:31:39.937Z,64.43
2018-11-26T21:35:43.873Z,64.29
2018-11-26T21:39:47.847Z,65.05
2018-11-26T21:43:51.893Z,65.11
2018-11-26T21:47:55.872Z,65.14
2018-11-26T21:51:59.924Z,65.27
2018-11-26T21:56:03.995Z,65.20
2018-11-26T22:00:17.496Z,65.10
2018-11-26T22:04:21.536Z,65.23
2018-11-26T22:08:25.584Z,65.70
2018-11-26T22:12:29.653Z,65.94
2018-11-26T22:16:33.716Z,65.85
2018-11-26T22:20:37.740Z,65.78
2018-11-26T22:24:41.835Z,65.28
2018-11-26T22:28:45.781Z,65.24
2018-11-26T22:32:49.763Z,65.32
2018-11-26T22:36:53.796Z,65.22
2018-11-26T22:40:57.863Z,65.39
2018-11-26T22:45:02.003Z,65.39
2018-11-26T22:49:06.218Z,65.46
2018-11-26T22:53:10.481Z,65.22
2018-11-26T22:57:15.588Z,65.20
2018-11-26T23:01:19.589Z,65.05
2018-11-26T23:05:23.714Z,65.29
2018-11-26T23:09:27.725Z,64.88
2018-11-26T23:13:31.776Z,65.46
2018-11-26T23:17:35.844Z,65.31
2018-11-26T23:21:39.885Z,65.25
2018-11-26T23:25:43.901Z,65.29
2018-11-26T23:29:47.922Z,65.23
2018-11-26T23:33:51.998Z,64.54
2018-11-26T23:37:55.969Z,64.72
2018-11-26T23:41:59.945Z,65.17
2018-11-26T23:46:04.053Z,65.24
2018-11-26T23:50:10.936Z,65.54
2018-11-26T23:54:15.020Z,65.43
2018-11-26T23:58:19.054Z,65.60
